Terminal Aerodrome Forecast
Issued by NWS Nashville, TN

Home | Current Version | Previous Version | Text Only | Print | Product List | Glossary On
Versions: 1 2 3 4 5 6 7 8 9 10 11 12 13
000
FTUS44 KOHX 271720
TAFBNA
TAF
KBNA 271720Z 2718/2818 06010G16KT P6SM FEW050
     FM280100 06004KT P6SM SKC
     FM281500 16007KT P6SM SCT050=

USA.gov is the U.S. government's official web portal to all federal, state and local government web resources and services.